createdAt,value
2022-08-27T00:00:13.606Z,1013.53
2022-08-27T00:01:13.956Z,1013.51
2022-08-27T00:02:14.381Z,1013.50
2022-08-27T00:03:14.662Z,1013.46
2022-08-27T00:04:15.107Z,1013.52
2022-08-27T00:05:15.359Z,1013.48
2022-08-27T00:06:15.712Z,1013.45
2022-08-27T00:07:16.067Z,1013.50
2022-08-27T00:08:16.429Z,1013.50
2022-08-27T00:09:16.795Z,1013.50
2022-08-27T00:10:17.141Z,1013.47
2022-08-27T00:11:17.497Z,1013.48
2022-08-27T00:12:17.859Z,1013.42
2022-08-27T00:13:18.201Z,1013.38
2022-08-27T00:14:18.621Z,1013.43
2022-08-27T00:15:18.932Z,1013.44
2022-08-27T00:16:19.293Z,1013.40
2022-08-27T00:17:19.622Z,1013.43
2022-08-27T00:18:22.669Z,1013.40
2022-08-27T00:19:20.357Z,1013.44
2022-08-27T00:20:20.726Z,1013.39
2022-08-27T00:21:21.075Z,1013.36
2022-08-27T00:22:21.459Z,1013.41
2022-08-27T00:23:21.823Z,1013.39
2022-08-27T00:24:22.204Z,1013.35
2022-08-27T00:25:22.526Z,1013.36
2022-08-27T00:26:22.883Z,1013.39
2022-08-27T00:27:23.232Z,1013.39
2022-08-27T00:28:23.580Z,1013.45
2022-08-27T00:29:23.954Z,1013.40
2022-08-27T00:30:24.369Z,1013.37
2022-08-27T00:31:27.265Z,1013.35
2022-08-27T00:32:25.005Z,1013.40
2022-08-27T00:33:25.358Z,1013.33
2022-08-27T00:34:25.719Z,1013.33
2022-08-27T00:35:26.063Z,1013.38
2022-08-27T00:36:26.403Z,1013.34
2022-08-27T00:37:26.787Z,1013.35
2022-08-27T00:38:27.140Z,1013.33
2022-08-27T00:39:27.508Z,1013.37
2022-08-27T00:40:27.919Z,1013.38
2022-08-27T00:41:28.314Z,1013.33
2022-08-27T00:42:29.518Z,1013.39
2022-08-27T00:43:28.979Z,1013.34
2022-08-27T00:44:29.342Z,1013.34
2022-08-27T00:45:29.719Z,1013.36
2022-08-27T00:46:30.042Z,1013.34
2022-08-27T00:47:30.391Z,1013.37
2022-08-27T00:48:30.747Z,1013.35
2022-08-27T00:49:31.122Z,1013.40
2022-08-27T00:50:31.464Z,1013.34
2022-08-27T00:51:31.806Z,1013.33
2022-08-27T00:52:32.186Z,1013.31
2022-08-27T00:53:32.572Z,1013.31
2022-08-27T00:54:32.972Z,1013.33
2022-08-27T00:55:33.290Z,1013.34
2022-08-27T00:56:33.671Z,1013.31
2022-08-27T00:57:34.014Z,1013.34
2022-08-27T00:58:34.393Z,1013.30
2022-08-27T00:59:34.756Z,1013.36
2022-08-27T01:00:35.224Z,1013.29
2022-08-27T01:01:35.905Z,1013.34
2022-08-27T01:02:35.904Z,1013.37
2022-08-27T01:03:36.190Z,1013.37
2022-08-27T01:04:36.603Z,1013.35
2022-08-27T01:05:36.923Z,1013.40
2022-08-27T01:06:37.289Z,1013.39
2022-08-27T01:07:37.641Z,1013.41
2022-08-27T01:08:37.983Z,1013.44
2022-08-27T01:09:38.375Z,1013.46
2022-08-27T01:10:38.745Z,1013.49
2022-08-27T01:11:39.076Z,1013.46
2022-08-27T01:12:39.497Z,1013.48
2022-08-27T01:13:54.474Z,1013.47
2022-08-27T01:14:40.241Z,1013.47
2022-08-27T01:15:40.593Z,1013.47
2022-08-27T01:16:41.027Z,1013.52
2022-08-27T01:17:41.278Z,1013.50
2022-08-27T01:18:41.671Z,1013.52
2022-08-27T01:19:42.065Z,1013.47
2022-08-27T01:20:42.408Z,1013.54
2022-08-27T01:21:42.762Z,1013.53
2022-08-27T01:22:43.112Z,1013.57
2022-08-27T01:23:43.453Z,1013.53
2022-08-27T01:24:44.069Z,1013.53
2022-08-27T01:25:44.168Z,1013.55
2022-08-27T01:26:44.563Z,1013.56
2022-08-27T01:27:44.900Z,1013.54
2022-08-27T01:28:45.295Z,1013.63
2022-08-27T01:29:45.635Z,1013.55
2022-08-27T01:30:45.999Z,1013.56
2022-08-27T01:31:46.404Z,1013.56
2022-08-27T01:32:46.717Z,1013.60
2022-08-27T01:33:47.061Z,1013.63
2022-08-27T01:34:47.431Z,1013.60
2022-08-27T01:35:47.779Z,1013.64
2022-08-27T01:36:48.169Z,1013.60
2022-08-27T01:37:48.491Z,1013.58
2022-08-27T01:38:48.851Z,1013.63
2022-08-27T01:39:49.215Z,1013.64
2022-08-27T01:40:49.579Z,1013.63
2022-08-27T01:41:52.435Z,1013.63
2022-08-27T01:42:50.301Z,1013.66
2022-08-27T01:43:50.687Z,1013.65
2022-08-27T01:44:51.051Z,1013.67
2022-08-27T01:45:51.387Z,1013.65
2022-08-27T01:46:51.772Z,1013.69
2022-08-27T01:47:52.085Z,1013.64
2022-08-27T01:48:52.475Z,1013.68
2022-08-27T01:49:52.824Z,1013.69
2022-08-27T01:50:53.192Z,1013.69
2022-08-27T01:51:53.551Z,1013.70
2022-08-27T01:52:53.907Z,1013.72
2022-08-27T01:53:54.289Z,1013.70
2022-08-27T01:54:54.667Z,1013.69
2022-08-27T01:55:54.997Z,1013.68
2022-08-27T01:56:55.346Z,1013.65
2022-08-27T01:57:55.732Z,1013.70
2022-08-27T01:58:56.096Z,1013.70
2022-08-27T01:59:56.466Z,1013.72
2022-08-27T02:00:56.978Z,1013.73
2022-08-27T02:01:57.240Z,1013.66
2022-08-27T02:02:57.601Z,1013.75
2022-08-27T02:03:57.924Z,1013.72
2022-08-27T02:04:58.335Z,1013.70
2022-08-27T02:05:58.629Z,1013.72
2022-08-27T02:06:58.979Z,1013.72
2022-08-27T02:07:59.321Z,1013.75
2022-08-27T02:08:59.700Z,1013.68
2022-08-27T02:10:00.106Z,1013.64
2022-08-27T02:11:00.407Z,1013.68
2022-08-27T02:12:00.781Z,1013.65
2022-08-27T02:13:01.188Z,1013.68
2022-08-27T02:14:01.534Z,1013.67
2022-08-27T02:15:01.957Z,1013.65
2022-08-27T02:16:02.295Z,1013.60
2022-08-27T02:17:02.624Z,1013.61
2022-08-27T02:18:03.123Z,1013.59
2022-08-27T02:19:03.332Z,1013.67
2022-08-27T02:20:03.705Z,1013.68
2022-08-27T02:21:04.106Z,1013.60
2022-08-27T02:22:04.417Z,1013.64
2022-08-27T02:23:04.809Z,1013.65
2022-08-27T02:24:05.155Z,1013.65
2022-08-27T02:25:05.520Z,1013.61
2022-08-27T02:26:05.843Z,1013.63
2022-08-27T02:27:06.211Z,1013.62
2022-08-27T02:28:06.686Z,1013.64
2022-08-27T02:29:06.931Z,1013.61
2022-08-27T02:30:07.307Z,1013.57
2022-08-27T02:31:07.752Z,1013.63
2022-08-27T02:32:08.034Z,1013.59
2022-08-27T02:33:08.436Z,1013.59
2022-08-27T02:34:08.778Z,1013.69
2022-08-27T02:35:09.143Z,1013.63
2022-08-27T02:36:09.513Z,1013.62
2022-08-27T02:37:09.875Z,1013.60
2022-08-27T02:38:10.413Z,1013.55
2022-08-27T02:39:10.618Z,1013.56
2022-08-27T02:40:10.998Z,1013.52
2022-08-27T02:41:11.340Z,1013.56
2022-08-27T02:42:11.693Z,1013.54
2022-08-27T02:43:15.835Z,1013.54
2022-08-27T02:44:13.826Z,1013.57
2022-08-27T02:45:12.818Z,1013.53
2022-08-27T02:46:13.279Z,1013.55
2022-08-27T02:47:13.539Z,1013.58
2022-08-27T02:48:13.898Z,1013.48
2022-08-27T02:49:14.287Z,1013.54
2022-08-27T02:50:14.607Z,1013.54
2022-08-27T02:51:15.001Z,1013.53
2022-08-27T02:52:15.316Z,1013.52
2022-08-27T02:53:15.680Z,1013.54
2022-08-27T02:54:16.054Z,1013.56
2022-08-27T02:55:17.397Z,1013.53
2022-08-27T02:56:21.677Z,1013.56
2022-08-27T02:57:17.133Z,1013.51
2022-08-27T02:58:17.479Z,1013.52
2022-08-27T02:59:17.830Z,1013.57
2022-08-27T03:00:18.219Z,1013.54
2022-08-27T03:01:18.563Z,1013.53
2022-08-27T03:02:18.991Z,1013.59
2022-08-27T03:03:19.305Z,1013.53
2022-08-27T03:04:19.655Z,1013.58
2022-08-27T03:05:26.026Z,1013.56
2022-08-27T03:06:20.385Z,1013.55
2022-08-27T03:07:20.720Z,1013.57
2022-08-27T03:08:25.669Z,1013.57
2022-08-27T03:09:21.442Z,1013.54
2022-08-27T03:10:21.798Z,1013.48
2022-08-27T03:11:22.158Z,1013.52
2022-08-27T03:12:22.890Z,1013.49
2022-08-27T03:13:22.891Z,1013.47
2022-08-27T03:14:23.257Z,1013.49
2022-08-27T03:15:23.597Z,1013.49
2022-08-27T03:16:24.077Z,1013.42
2022-08-27T03:17:24.336Z,1013.45
2022-08-27T03:18:24.698Z,1013.47
2022-08-27T03:19:25.044Z,1013.45
2022-08-27T03:20:25.429Z,1013.54
2022-08-27T03:21:25.787Z,1013.46
2022-08-27T03:22:26.197Z,1013.52
2022-08-27T03:23:26.506Z,1013.46
2022-08-27T03:24:26.890Z,1013.44
2022-08-27T03:25:27.259Z,1013.49
2022-08-27T03:26:27.632Z,1013.46
2022-08-27T03:27:27.971Z,1013.42
2022-08-27T03:28:28.329Z,1013.46
2022-08-27T03:29:28.695Z,1013.48
2022-08-27T03:30:29.030Z,1013.48
2022-08-27T03:31:29.495Z,1013.51
2022-08-27T03:32:29.755Z,1013.50
2022-08-27T03:33:30.098Z,1013.48
2022-08-27T03:34:30.459Z,1013.50
2022-08-27T03:35:30.847Z,1013.50
2022-08-27T03:36:31.195Z,1013.43
2022-08-27T03:37:31.546Z,1013.47
2022-08-27T03:38:31.941Z,1013.48
2022-08-27T03:39:32.244Z,1013.49
2022-08-27T03:40:32.711Z,1013.48
2022-08-27T03:41:53.957Z,1013.50
2022-08-27T03:42:33.369Z,1013.53
2022-08-27T03:43:33.726Z,1013.50
2022-08-27T03:44:34.071Z,1013.47
2022-08-27T03:45:52.785Z,1013.53
2022-08-27T03:46:34.865Z,1013.49
2022-08-27T03:47:35.175Z,1013.52
2022-08-27T03:48:35.562Z,1013.50
2022-08-27T03:49:35.933Z,1013.51
2022-08-27T03:50:36.315Z,1013.51
2022-08-27T03:51:36.722Z,1013.53
2022-08-27T03:52:37.056Z,1013.50
2022-08-27T03:53:37.420Z,1013.50
2022-08-27T03:54:37.553Z,1013.49
2022-08-27T03:55:37.842Z,1013.51
2022-08-27T03:56:38.208Z,1013.51
2022-08-27T03:57:38.313Z,1013.53
2022-08-27T03:58:39.072Z,1013.47
2022-08-27T03:59:38.765Z,1013.52
2022-08-27T04:00:38.936Z,1013.50
2022-08-27T04:01:39.295Z,1013.55
2022-08-27T04:02:39.436Z,1013.54
2022-08-27T04:03:39.595Z,1013.51
2022-08-27T04:04:39.838Z,1013.56
2022-08-27T04:05:40.014Z,1013.53
2022-08-27T04:06:40.264Z,1013.52
2022-08-27T04:07:40.386Z,1013.55
2022-08-27T04:08:40.548Z,1013.59
2022-08-27T04:09:40.826Z,1013.57
2022-08-27T04:10:41.133Z,1013.57
2022-08-27T04:11:41.466Z,1013.54
2022-08-27T04:12:41.596Z,1013.59
2022-08-27T04:13:41.778Z,1013.54
2022-08-27T04:14:42.066Z,1013.53
2022-08-27T04:15:42.397Z,1013.59
2022-08-27T04:16:42.559Z,1013.51
2022-08-27T04:17:42.821Z,1013.52
2022-08-27T04:18:43.001Z,1013.56
2022-08-27T04:19:43.191Z,1013.58
2022-08-27T04:20:43.484Z,1013.55
2022-08-27T04:21:43.782Z,1013.54
2022-08-27T04:22:43.938Z,1013.54
2022-08-27T04:23:44.113Z,1013.52
2022-08-27T04:24:44.427Z,1013.53
2022-08-27T04:25:44.703Z,1013.48
2022-08-27T04:26:44.900Z,1013.49
2022-08-27T04:27:45.049Z,1013.51
2022-08-27T04:28:48.676Z,1013.50
2022-08-27T04:29:45.525Z,1013.47
2022-08-27T04:30:45.711Z,1013.53
2022-08-27T04:31:46.008Z,1013.43
2022-08-27T04:32:46.283Z,1013.50
2022-08-27T04:33:51.152Z,1013.52
2022-08-27T04:34:46.658Z,1013.53
2022-08-27T04:35:46.923Z,1013.53
2022-08-27T04:36:47.105Z,1013.58
2022-08-27T04:37:47.437Z,1013.53
2022-08-27T04:38:47.569Z,1013.53
2022-08-27T04:39:50.302Z,1013.57
2022-08-27T04:40:47.931Z,1013.60
2022-08-27T04:41:48.239Z,1013.60
2022-08-27T04:42:48.394Z,1013.54
2022-08-27T04:43:48.587Z,1013.55
2022-08-27T04:44:48.787Z,1013.60
2022-08-27T04:45:48.919Z,1013.57
2022-08-27T04:46:49.459Z,1013.58
2022-08-27T04:47:49.297Z,1013.64
2022-08-27T04:48:49.605Z,1013.67
2022-08-27T04:49:49.754Z,1013.66
2022-08-27T04:50:50.067Z,1013.64
2022-08-27T04:51:50.277Z,1013.61
2022-08-27T04:52:50.414Z,1013.64
2022-08-27T04:53:50.598Z,1013.59
2022-08-27T04:54:50.795Z,1013.59
2022-08-27T04:55:50.957Z,1013.63
2022-08-27T04:56:51.280Z,1013.63
2022-08-27T04:57:51.412Z,1013.62
2022-08-27T04:58:51.609Z,1013.61
2022-08-27T04:59:51.803Z,1013.63
2022-08-27T05:00:52.119Z,1013.64
2022-08-27T05:01:52.391Z,1013.61
2022-08-27T05:02:52.465Z,1013.58
2022-08-27T05:03:52.656Z,1013.58
2022-08-27T05:04:52.882Z,1013.61
2022-08-27T05:05:53.036Z,1013.59
2022-08-27T05:06:54.885Z,1013.60
2022-08-27T05:07:53.405Z,1013.58
2022-08-27T05:08:53.583Z,1013.62
2022-08-27T05:09:53.793Z,1013.66
2022-08-27T05:10:53.959Z,1013.60
2022-08-27T05:11:54.130Z,1013.61
2022-08-27T05:12:59.340Z,1013.66
2022-08-27T05:13:54.452Z,1013.68
2022-08-27T05:14:54.641Z,1013.65
2022-08-27T05:15:54.977Z,1013.64
2022-08-27T05:16:55.117Z,1013.66
2022-08-27T05:17:55.289Z,1013.64
2022-08-27T05:18:55.456Z,1013.62
2022-08-27T05:19:55.666Z,1013.66
2022-08-27T05:20:55.814Z,1013.61
2022-08-27T05:21:55.992Z,1013.60
2022-08-27T05:22:56.135Z,1013.62
2022-08-27T05:23:56.445Z,1013.66
2022-08-27T05:24:56.618Z,1013.72
2022-08-27T05:25:56.786Z,1013.67
2022-08-27T05:26:56.978Z,1013.67
2022-08-27T05:27:57.143Z,1013.68
2022-08-27T05:28:57.336Z,1013.70
2022-08-27T05:29:57.508Z,1013.70
2022-08-27T05:30:57.706Z,1013.73
2022-08-27T05:31:57.864Z,1013.73
2022-08-27T05:32:58.048Z,1013.75
2022-08-27T05:33:58.340Z,1013.78
2022-08-27T05:34:58.522Z,1013.78
2022-08-27T05:35:58.721Z,1013.73
2022-08-27T05:36:58.916Z,1013.67
2022-08-27T05:37:59.070Z,1013.75
2022-08-27T05:38:59.263Z,1013.68
2022-08-27T05:39:59.469Z,1013.72
2022-08-27T05:40:59.653Z,1013.74
2022-08-27T05:41:59.841Z,1013.74
2022-08-27T05:43:00.020Z,1013.71
2022-08-27T05:44:00.207Z,1013.75
2022-08-27T05:45:00.406Z,1013.76
2022-08-27T05:46:00.689Z,1013.73
2022-08-27T05:47:00.799Z,1013.79
2022-08-27T05:48:00.960Z,1013.78
2022-08-27T05:49:01.125Z,1013.82
2022-08-27T05:50:01.325Z,1013.72
2022-08-27T05:51:01.536Z,1013.84
2022-08-27T05:52:01.736Z,1013.74
2022-08-27T05:53:01.913Z,1013.74
2022-08-27T05:54:05.634Z,1013.74
2022-08-27T05:55:02.279Z,1013.78
2022-08-27T05:56:02.451Z,1013.79
2022-08-27T05:57:02.767Z,1013.77
2022-08-27T05:58:02.936Z,1013.75
2022-08-27T05:59:03.108Z,1013.74
2022-08-27T06:00:03.302Z,1013.80
2022-08-27T06:01:06.982Z,1013.81
2022-08-27T06:02:03.697Z,1013.81
2022-08-27T06:03:03.903Z,1013.75
2022-08-27T06:04:04.138Z,1013.79
2022-08-27T06:05:04.305Z,1013.78
2022-08-27T06:06:04.446Z,1013.83
2022-08-27T06:07:04.681Z,1013.88
2022-08-27T06:08:04.800Z,1013.84
2022-08-27T06:09:04.965Z,1013.90
2022-08-27T06:10:05.147Z,1013.88
2022-08-27T06:11:05.313Z,1013.86
2022-08-27T06:12:05.497Z,1013.88
2022-08-27T06:13:05.670Z,1013.83
2022-08-27T06:14:05.862Z,1013.90
2022-08-27T06:15:06.033Z,1013.85
2022-08-27T06:16:06.681Z,1013.87
2022-08-27T06:17:06.444Z,1013.87
2022-08-27T06:18:06.609Z,1013.91
2022-08-27T06:19:06.781Z,1013.92
2022-08-27T06:20:06.959Z,1013.98
2022-08-27T06:21:07.142Z,1013.92
2022-08-27T06:22:10.571Z,1013.95
2022-08-27T06:23:07.516Z,1013.98
2022-08-27T06:24:07.772Z,1013.98
2022-08-27T06:25:07.911Z,1013.98
2022-08-27T06:26:08.110Z,1013.96
2022-08-27T06:27:08.304Z,1013.98
2022-08-27T06:28:08.482Z,1013.94
2022-08-27T06:29:08.675Z,1013.94
2022-08-27T06:30:08.867Z,1014.03
2022-08-27T06:31:09.084Z,1013.94
2022-08-27T06:32:09.253Z,1013.97
2022-08-27T06:33:09.505Z,1013.94
2022-08-27T06:34:09.640Z,1013.97
2022-08-27T06:35:09.825Z,1013.96
2022-08-27T06:36:10.069Z,1013.96
2022-08-27T06:37:10.234Z,1013.95
2022-08-27T06:38:10.609Z,1013.96
2022-08-27T06:39:10.588Z,1013.96
2022-08-27T06:40:10.836Z,1013.95
2022-08-27T06:41:23.193Z,1013.95
2022-08-27T06:42:11.235Z,1013.94
2022-08-27T06:43:11.352Z,1013.96
2022-08-27T06:44:11.533Z,1013.97
2022-08-27T06:45:11.745Z,1013.91
2022-08-27T06:46:11.930Z,1013.97
2022-08-27T06:47:12.109Z,1013.91
2022-08-27T06:48:12.593Z,1013.87
2022-08-27T06:49:12.532Z,1013.94
2022-08-27T06:50:16.409Z,1013.86
2022-08-27T06:51:12.865Z,1013.91
2022-08-27T06:52:13.041Z,1013.96
2022-08-27T06:53:13.218Z,1013.92
2022-08-27T06:54:13.439Z,1013.89
2022-08-27T06:55:13.617Z,1013.91
2022-08-27T06:56:13.830Z,1013.92
2022-08-27T06:57:14.057Z,1013.91
2022-08-27T06:58:14.169Z,1013.86
2022-08-27T06:59:14.405Z,1013.88
2022-08-27T07:00:14.561Z,1013.90
2022-08-27T07:01:14.867Z,1013.89
2022-08-27T07:02:15.036Z,1013.92
2022-08-27T07:03:15.138Z,1013.89
2022-08-27T07:04:15.293Z,1013.90
2022-08-27T07:05:15.471Z,1013.90
2022-08-27T07:06:15.630Z,1013.91
2022-08-27T07:07:28.015Z,1013.88
2022-08-27T07:08:16.010Z,1013.90
2022-08-27T07:09:16.185Z,1013.85
2022-08-27T07:10:16.378Z,1013.89
2022-08-27T07:11:16.628Z,1013.87
2022-08-27T07:12:16.790Z,1013.83
2022-08-27T07:13:16.944Z,1013.83
2022-08-27T07:14:17.135Z,1013.85
2022-08-27T07:15:17.336Z,1013.89
2022-08-27T07:16:17.582Z,1013.90
2022-08-27T07:17:17.743Z,1013.89
2022-08-27T07:18:17.953Z,1013.93
2022-08-27T07:19:18.156Z,1013.89
2022-08-27T07:20:18.315Z,1013.93
2022-08-27T07:21:18.510Z,1013.93
2022-08-27T07:22:18.737Z,1013.95
2022-08-27T07:23:18.929Z,1014.00
2022-08-27T07:24:19.107Z,1014.03
2022-08-27T07:25:19.287Z,1013.99
2022-08-27T07:26:19.573Z,1013.99
2022-08-27T07:27:19.697Z,1014.04
2022-08-27T07:28:19.880Z,1014.03
2022-08-27T07:29:20.042Z,1014.04
2022-08-27T07:30:20.227Z,1014.05
2022-08-27T07:31:20.460Z,1014.09
2022-08-27T07:32:20.676Z,1014.03
2022-08-27T07:33:20.799Z,1014.12
2022-08-27T07:34:21.004Z,1014.06
2022-08-27T07:35:21.199Z,1014.00
2022-08-27T07:36:21.368Z,1014.05
2022-08-27T07:37:21.565Z,1013.98
2022-08-27T07:38:21.730Z,1014.04
2022-08-27T07:39:21.908Z,1013.93
2022-08-27T07:40:22.173Z,1013.97
2022-08-27T07:41:22.280Z,1013.97
2022-08-27T07:42:22.516Z,1013.92
2022-08-27T07:43:22.653Z,1013.96
2022-08-27T07:44:25.927Z,1014.03
2022-08-27T07:45:23.007Z,1014.09
2022-08-27T07:46:23.262Z,1014.08
2022-08-27T07:47:23.428Z,1014.08
2022-08-27T07:48:23.572Z,1014.12
2022-08-27T07:49:23.763Z,1014.11
2022-08-27T07:50:23.990Z,1014.15
2022-08-27T07:51:24.164Z,1014.11
2022-08-27T07:52:26.540Z,1014.16
2022-08-27T07:53:24.584Z,1014.14
2022-08-27T07:54:25.466Z,1014.22
2022-08-27T07:55:24.963Z,1014.26
2022-08-27T07:56:25.160Z,1014.20
2022-08-27T07:57:25.369Z,1014.23
2022-08-27T07:58:25.563Z,1014.25
2022-08-27T07:59:26.156Z,1014.19
2022-08-27T08:00:25.972Z,1014.18
2022-08-27T08:01:26.196Z,1014.25
2022-08-27T08:02:26.374Z,1014.26
2022-08-27T08:03:26.527Z,1014.30
2022-08-27T08:04:26.778Z,1014.30
2022-08-27T08:05:26.886Z,1014.28
2022-08-27T08:06:27.069Z,1014.31
2022-08-27T08:07:27.335Z,1014.32
2022-08-27T08:08:27.467Z,1014.37
2022-08-27T08:09:27.655Z,1014.37
2022-08-27T08:10:30.413Z,1014.35
2022-08-27T08:11:28.042Z,1014.42
2022-08-27T08:12:28.281Z,1014.45
2022-08-27T08:13:28.450Z,1014.46
2022-08-27T08:14:28.668Z,1014.44
2022-08-27T08:15:28.852Z,1014.45
2022-08-27T08:16:31.733Z,1014.43
2022-08-27T08:17:29.283Z,1014.50
2022-08-27T08:18:29.443Z,1014.44
2022-08-27T08:19:29.615Z,1014.50
2022-08-27T08:20:54.131Z,1014.51
2022-08-27T08:21:30.000Z,1014.56
2022-08-27T08:22:30.194Z,1014.50
2022-08-27T08:23:30.332Z,1014.53
2022-08-27T08:24:30.522Z,1014.58
2022-08-27T08:25:38.406Z,1014.48
2022-08-27T08:26:30.889Z,1014.53
2022-08-27T08:27:31.100Z,1014.53
2022-08-27T08:28:31.297Z,1014.55
2022-08-27T08:29:31.504Z,1014.52
2022-08-27T08:30:35.320Z,1014.55
2022-08-27T08:31:31.848Z,1014.55
2022-08-27T08:32:32.072Z,1014.55
2022-08-27T08:33:32.214Z,1014.63
2022-08-27T08:34:32.404Z,1014.58
2022-08-27T08:35:38.622Z,1014.50
2022-08-27T08:36:32.799Z,1014.56
2022-08-27T08:37:32.981Z,1014.51
2022-08-27T08:38:33.171Z,1014.56
2022-08-27T08:39:33.371Z,1014.55
2022-08-27T08:40:33.604Z,1014.56
2022-08-27T08:41:33.737Z,1014.56
2022-08-27T08:42:33.974Z,1014.54
2022-08-27T08:43:34.122Z,1014.57
2022-08-27T08:44:34.299Z,1014.55
2022-08-27T08:45:34.497Z,1014.56
2022-08-27T08:46:34.683Z,1014.54
2022-08-27T08:47:34.888Z,1014.63
2022-08-27T08:48:35.082Z,1014.62
2022-08-27T08:49:35.291Z,1014.63
2022-08-27T08:50:35.484Z,1014.61
2022-08-27T08:51:35.697Z,1014.64
2022-08-27T08:52:35.884Z,1014.68
2022-08-27T08:53:36.076Z,1014.72
2022-08-27T08:54:36.287Z,1014.74
2022-08-27T08:55:36.450Z,1014.72
2022-08-27T08:56:36.639Z,1014.74
2022-08-27T08:57:36.841Z,1014.80
2022-08-27T08:58:37.028Z,1014.77
2022-08-27T08:59:37.227Z,1014.84
2022-08-27T09:00:37.422Z,1014.80
2022-08-27T09:01:37.671Z,1014.83
2022-08-27T09:02:37.812Z,1014.86
2022-08-27T09:03:38.046Z,1014.82
2022-08-27T09:04:38.178Z,1014.83
2022-08-27T09:05:38.408Z,1014.83
2022-08-27T09:06:38.575Z,1014.92
2022-08-27T09:07:38.822Z,1014.88
2022-08-27T09:08:41.652Z,1014.83
2022-08-27T09:09:39.137Z,1014.91
2022-08-27T09:10:39.334Z,1014.91
2022-08-27T09:11:39.523Z,1014.94
2022-08-27T09:12:39.733Z,1014.87
2022-08-27T09:13:39.889Z,1014.90
2022-08-27T09:14:40.098Z,1014.89
2022-08-27T09:15:40.281Z,1014.90
2022-08-27T09:16:40.555Z,1014.86
2022-08-27T09:17:40.675Z,1014.97
2022-08-27T09:18:40.975Z,1014.92
2022-08-27T09:19:41.635Z,1014.87
2022-08-27T09:20:41.221Z,1014.93
2022-08-27T09:21:41.401Z,1014.95
2022-08-27T09:22:41.615Z,1014.93
2022-08-27T09:23:41.791Z,1014.94
2022-08-27T09:24:41.984Z,1014.92
2022-08-27T09:25:42.176Z,1014.89
2022-08-27T09:26:42.362Z,1014.85
2022-08-27T09:27:42.568Z,1014.92
2022-08-27T09:28:42.775Z,1014.94
2022-08-27T09:29:42.950Z,1014.88
2022-08-27T09:30:43.212Z,1014.90
2022-08-27T09:31:43.310Z,1014.91
2022-08-27T09:32:43.503Z,1014.93
2022-08-27T09:33:56.034Z,1014.90
2022-08-27T09:34:43.891Z,1014.95
2022-08-27T09:35:44.091Z,1014.99
2022-08-27T09:36:44.268Z,1015.01
2022-08-27T09:37:44.487Z,1014.91
2022-08-27T09:38:44.641Z,1014.97
2022-08-27T09:39:44.842Z,1014.98
2022-08-27T09:40:45.056Z,1014.97
2022-08-27T09:41:45.221Z,1015.06
2022-08-27T09:42:46.035Z,1014.98
2022-08-27T09:43:45.609Z,1015.01
2022-08-27T09:44:49.163Z,1014.93
2022-08-27T09:45:46.183Z,1014.95
2022-08-27T09:46:46.155Z,1015.00
2022-08-27T09:47:46.369Z,1014.96
2022-08-27T09:48:46.522Z,1015.03
2022-08-27T09:49:46.696Z,1015.02
2022-08-27T09:50:46.927Z,1014.93
2022-08-27T09:51:47.060Z,1014.94
2022-08-27T09:52:47.269Z,1014.96
2022-08-27T09:53:47.424Z,1014.98
2022-08-27T09:54:47.665Z,1015.00
2022-08-27T09:55:47.814Z,1014.99
2022-08-27T09:56:48.002Z,1014.99
2022-08-27T09:57:48.204Z,1014.99
2022-08-27T09:58:48.388Z,1014.98
2022-08-27T09:59:48.584Z,1014.99
2022-08-27T10:00:48.823Z,1014.95
2022-08-27T10:01:49.008Z,1014.89
2022-08-27T10:02:49.176Z,1014.92
2022-08-27T10:03:49.410Z,1014.98
2022-08-27T10:04:50.774Z,1014.93
2022-08-27T10:05:49.724Z,1014.95
2022-08-27T10:06:49.927Z,1014.97
2022-08-27T10:07:50.174Z,1014.93
2022-08-27T10:08:50.310Z,1014.95
2022-08-27T10:09:50.505Z,1014.92
2022-08-27T10:10:50.689Z,1014.97
2022-08-27T10:11:50.869Z,1014.96
2022-08-27T10:12:51.095Z,1014.97
2022-08-27T10:13:51.257Z,1014.98
2022-08-27T10:14:51.429Z,1015.00
2022-08-27T10:15:51.595Z,1014.99
2022-08-27T10:16:51.836Z,1014.99
2022-08-27T10:17:52.008Z,1014.98
2022-08-27T10:18:52.155Z,1014.98
2022-08-27T10:19:52.347Z,1014.93
2022-08-27T10:20:52.549Z,1015.03
2022-08-27T10:21:52.732Z,1015.04
2022-08-27T10:22:52.942Z,1014.97
2022-08-27T10:23:53.080Z,1014.91
2022-08-27T10:24:53.286Z,1014.94
2022-08-27T10:25:53.472Z,1014.94
2022-08-27T10:26:53.669Z,1014.97
2022-08-27T10:27:53.875Z,1015.02
2022-08-27T10:28:54.076Z,1014.98
2022-08-27T10:29:55.149Z,1014.99
2022-08-27T10:30:54.445Z,1014.96
2022-08-27T10:31:54.720Z,1014.94
2022-08-27T10:32:55.203Z,1014.97
2022-08-27T10:33:54.999Z,1014.93
2022-08-27T10:34:55.210Z,1014.94
2022-08-27T10:35:55.410Z,1014.95
2022-08-27T10:36:55.626Z,1014.93
2022-08-27T10:37:55.817Z,1014.94
2022-08-27T10:38:56.013Z,1014.93
2022-08-27T10:39:56.225Z,1014.90
2022-08-27T10:40:56.377Z,1014.94
2022-08-27T10:41:56.578Z,1014.96
2022-08-27T10:42:57.875Z,1014.92
2022-08-27T10:43:56.999Z,1014.92
2022-08-27T10:44:57.178Z,1014.93
2022-08-27T10:45:57.499Z,1014.96
2022-08-27T10:46:57.557Z,1014.96
2022-08-27T10:47:57.762Z,1014.97
2022-08-27T10:48:57.934Z,1014.92
2022-08-27T10:49:58.124Z,1014.91
2022-08-27T10:50:58.337Z,1014.89
2022-08-27T10:51:58.509Z,1014.97
2022-08-27T10:52:58.702Z,1014.98
2022-08-27T10:53:58.857Z,1014.96
2022-08-27T10:54:59.060Z,1014.97
2022-08-27T10:55:59.254Z,1014.98
2022-08-27T10:57:22.859Z,1014.92
2022-08-27T10:58:01.205Z,1014.93
2022-08-27T10:58:59.869Z,1014.94
2022-08-27T11:00:00.094Z,1014.95
2022-08-27T11:01:00.429Z,1014.92
2022-08-27T11:02:00.596Z,1014.95
2022-08-27T11:03:00.736Z,1014.95
2022-08-27T11:04:00.924Z,1014.90
2022-08-27T11:05:01.099Z,1015.00
2022-08-27T11:06:01.324Z,1014.94
2022-08-27T11:07:01.528Z,1014.96
2022-08-27T11:08:01.744Z,1014.98
2022-08-27T11:09:07.461Z,1014.96
2022-08-27T11:10:02.089Z,1014.95
2022-08-27T11:11:25.975Z,1014.90
2022-08-27T11:12:17.882Z,1014.94
2022-08-27T11:13:02.719Z,1014.93
2022-08-27T11:14:02.849Z,1014.94
2022-08-27T11:15:03.048Z,1014.95
2022-08-27T11:16:03.316Z,1014.93
2022-08-27T11:17:03.459Z,1014.92
2022-08-27T11:18:03.624Z,1014.88
2022-08-27T11:19:03.809Z,1014.91
2022-08-27T11:20:04.012Z,1014.88
2022-08-27T11:21:04.216Z,1014.87
2022-08-27T11:22:04.443Z,1014.84
2022-08-27T11:23:04.665Z,1014.87
2022-08-27T11:24:04.835Z,1014.89
2022-08-27T11:25:05.057Z,1014.87
2022-08-27T11:26:05.265Z,1014.88
2022-08-27T11:27:05.447Z,1014.89
2022-08-27T11:28:05.675Z,1014.90
2022-08-27T11:29:05.865Z,1014.89
2022-08-27T11:30:06.063Z,1014.87
2022-08-27T11:31:06.364Z,1014.87
2022-08-27T11:32:06.491Z,1014.91
2022-08-27T11:33:06.698Z,1014.87
2022-08-27T11:34:06.904Z,1014.88
2022-08-27T11:35:07.069Z,1014.83
2022-08-27T11:36:07.309Z,1014.87
2022-08-27T11:37:07.489Z,1014.83
2022-08-27T11:38:07.806Z,1014.86
2022-08-27T11:39:07.887Z,1014.84
2022-08-27T11:40:08.166Z,1014.85
2022-08-27T11:41:08.278Z,1014.84
2022-08-27T11:42:08.459Z,1014.85
2022-08-27T11:43:08.660Z,1014.82
2022-08-27T11:44:08.860Z,1014.83
2022-08-27T11:45:09.048Z,1014.73
2022-08-27T11:46:09.234Z,1014.77
2022-08-27T11:47:09.486Z,1014.74
2022-08-27T11:48:09.692Z,1014.72
2022-08-27T11:49:09.835Z,1014.69
2022-08-27T11:50:10.020Z,1014.75
2022-08-27T11:51:10.205Z,1014.73
2022-08-27T11:52:10.389Z,1014.67
2022-08-27T11:53:10.584Z,1014.68
2022-08-27T11:54:10.772Z,1014.73
2022-08-27T11:55:11.001Z,1014.69
2022-08-27T11:56:11.184Z,1014.67
2022-08-27T11:57:11.380Z,1014.70
2022-08-27T11:58:11.826Z,1014.75
2022-08-27T11:59:11.775Z,1014.70
2022-08-27T12:00:11.952Z,1014.68
2022-08-27T12:01:12.151Z,1014.67
2022-08-27T12:02:12.317Z,1014.64
2022-08-27T12:03:12.573Z,1014.67
2022-08-27T12:04:12.762Z,1014.65
2022-08-27T12:05:12.864Z,1014.64
2022-08-27T12:06:13.057Z,1014.59
2022-08-27T12:07:13.236Z,1014.64
2022-08-27T12:08:13.506Z,1014.65